Flight Track Log - Related Links

Times and Time Zones

All times are in EDT time to prevent confusion due to time zone crossing. See the JZA8293 flight status page for this flight to view local times or setup timezone preferences in your user account.

Time Position Orientation Groundspeed Altitude Reporting Facility
EDT Latitude Longitude Course Direction KTS MPH feet Rate Location/Type
Fri 01:41:52 PM 49.8833 -97.2333 287° West 10 12 700  Level Winnipeg Center
Fri 01:43:52 PM 49.9000 -97.2500 327° Northwest 160 184 1,500 933 Climbing Winnipeg Center
Fri 01:44:52 PM 49.9333 -97.3000 316° Northwest 200 230 3,500 2,250 Climbing Winnipeg Center
Fri 01:45:52 PM 49.9500 -97.4000 285° West 250 288 6,000 2,750 Climbing Winnipeg Center
Fri 01:46:52 PM 49.9833 -97.5167 294° West 260 299 9,000 2,950 Climbing Winnipeg Center
Fri 01:47:52 PM 50.0000 -97.6167 285° West 260 299 11,900 2,750 Climbing Winnipeg Center
Fri 01:48:00 PM 50.0756 -98.0277 287° West  Level FlightAware Approximate
Fri 01:48:52 PM 50.0167 -97.7500 281° West 270 311 14,500  Level Winnipeg Center
Fri 01:49:52 PM 50.0500 -97.8500 297° West 280 322 16,400 1,900 Climbing Winnipeg Center
Fri 01:50:52 PM 50.0667 -97.9833 281° West 290 334 18,300 1,950 Climbing Winnipeg Center
Fri 01:51:52 PM 50.0833 -98.0833 285° West 290 334 20,300 1,900 Climbing Winnipeg Center
Fri 01:52:52 PM 50.1000 -98.2167 281° West 280 322 22,100 1,450 Climbing Winnipeg Center
Fri 01:53:52 PM 50.1333 -98.3167 298° West 300 345 23,200 1,200 Climbing Winnipeg Center
Fri 01:54:52 PM 50.1500 -98.4500 281° West 300 345 24,500 1,350 Climbing Winnipeg Center
Fri 01:55:52 PM 50.1833 -98.5833 291° West 310 357 25,900 1,200 Climbing Winnipeg Center
Fri 01:56:52 PM 50.2167 -98.7167 291° West 310 357 26,900 1,050 Climbing Winnipeg Center
Fri 01:57:52 PM 50.2333 -98.8500 281° West 320 368 28,000 1,000 Climbing Winnipeg Center
Fri 01:58:52 PM 50.2667 -98.9833 291° West 320 368 28,900 850 Climbing Winnipeg Center
Fri 01:59:52 PM 50.3000 -99.1167 291° West 320 368 29,700 750 Climbing Winnipeg Center
Fri 02:00:52 PM 50.3167 -99.2500 281° West 330 380 30,400 650 Climbing Winnipeg Center
Fri 02:01:52 PM 50.3333 -99.4000 280° West 330 380 31,000 550 Climbing Winnipeg Center
Fri 02:02:52 PM 50.3667 -99.5333 291° West 330 380 31,500 450 Climbing Winnipeg Center
Fri 02:03:52 PM 50.3833 -99.6667 281° West 340 391 31,900 500 Climbing Winnipeg Center
Fri 02:04:52 PM 50.4167 -99.8000 291° West 340 391 32,500 600 Climbing Winnipeg Center
Fri 02:05:52 PM 50.4667 -99.9333 301° West 330 380 33,100 550 Climbing Winnipeg Center
Fri 02:06:52 PM 50.4833 -100.0667 281° West 330 380 33,600 450 Climbing Winnipeg Center
Fri 02:07:52 PM 50.5333 -100.2000 301° West 330 380 34,000 200 Climbing Winnipeg Center
Fri 02:08:52 PM 50.5667 -100.3333 292° West 340 391 34,000  Level Winnipeg Center
Fri 02:09:52 PM 50.6167 -100.5000 295° West 350 403 34,000  Level Winnipeg Center
Fri 02:10:52 PM 50.6500 -100.6333 292° West 360 414 34,000  Level Winnipeg Center
Fri 02:11:52 PM 50.7000 -100.7667 301° West 360 414 34,000  Level Winnipeg Center
Fri 02:12:52 PM 50.7333 -100.9333 288° West 370 426 34,000  Level Winnipeg Center
Fri 02:13:52 PM 50.7833 -101.0667 301° West 370 426 34,000  Level Winnipeg Center
Fri 02:14:52 PM 50.8167 -101.2333 288° West 370 426 34,000  Level Winnipeg Center
Fri 02:15:52 PM 50.8667 -101.3667 301° West 380 437 34,000  Level Winnipeg Center
Fri 02:16:52 PM 50.9167 -101.5333 296° West 380 437 34,000  Level Winnipeg Center
Fri 02:17:52 PM 50.9500 -101.6667 292° West 380 437 34,000  Level Winnipeg Center
Fri 02:18:52 PM 51.0000 -101.8333 296° West 380 437 34,000  Level Winnipeg Center
Fri 02:19:52 PM 51.0500 -102.0000 296° West 380 437 34,000  Level Winnipeg Center
Fri 02:20:52 PM 51.0833 -102.1333 292° West 370 426 34,000  Level Winnipeg Center
Fri 02:21:52 PM 51.1167 -102.3000 288° West 380 437 34,000  Level Winnipeg Center
Fri 02:22:52 PM 51.1500 -102.4667 288° West 380 437 34,000  Level Winnipeg Center
Fri 02:23:52 PM 51.2000 -102.6000 301° West 380 437 34,000  Level Winnipeg Center
Fri 02:24:52 PM 51.2333 -102.7667 288° West 380 437 34,000  Level Winnipeg Center
Fri 02:25:52 PM 51.2833 -102.9167 298° West 380 437 34,000  Level Winnipeg Center
Fri 02:26:52 PM 51.3333 -103.0833 296° West 380 437 34,000  Level Winnipeg Center
Fri 02:27:52 PM 51.3667 -103.2500 288° West 380 437 34,000  Level Winnipeg Center
Fri 02:28:52 PM 51.4000 -103.3833 292° West 380 437 34,000  Level Winnipeg Center
Fri 02:29:52 PM 51.4333 -103.5167 292° West 380 437 34,000  Level Winnipeg Center
Fri 02:30:52 PM 51.4833 -103.6833 296° West 380 437 34,000  Level Winnipeg Center
Fri 02:31:52 PM 51.5167 -103.8500 288° West 380 437 34,000  Level Winnipeg Center
Fri 02:32:52 PM 51.5500 -104.0333 286° West 380 437 34,000  Level Winnipeg Center
Fri 02:33:52 PM 51.6000 -104.1667 301° West 380 437 34,000  Level Winnipeg Center
Fri 02:34:52 PM 51.6333 -104.3333 288° West 380 437 34,000  Level Winnipeg Center
Fri 02:35:52 PM 51.6667 -104.4833 290° West 380 437 34,000  Level Winnipeg Center
Fri 02:36:52 PM 51.7167 -104.6500 296° West 380 437 34,000 -400 Level Winnipeg Center
Fri 02:37:52 PM 51.7500 -104.8167 288° West 380 437 33,200 -2,000 Descending Winnipeg Center
Fri 02:38:52 PM 51.7833 -104.9833 288° West 390 449 30,000 -3,100 Descending Winnipeg Center
Fri 02:39:52 PM 51.8167 -105.1333 290° West 370 426 27,000 -2,950 Descending Winnipeg Center
Fri 02:40:52 PM 51.8667 -105.2667 301° West 370 426 24,100 -2,800 Descending Winnipeg Center
Fri 02:41:52 PM 51.8833 -105.4167 280° West 350 403 21,400 -2,700 Descending Winnipeg Center
Fri 02:42:52 PM 51.9333 -105.5500 301° West 340 391 18,700 -2,650 Descending Winnipeg Center
Fri 02:43:52 PM 51.9667 -105.7000 290° West 330 380 16,100 -2,700 Descending Winnipeg Center
Fri 02:44:52 PM 51.9833 -105.8500 280° West 330 380 13,300 -2,400 Descending Winnipeg Center
Fri 02:45:52 PM 52.0167 -105.9500 298° West 310 357 11,300 -2,000 Descending Winnipeg Center
Fri 02:46:52 PM 52.0500 -106.1000 290° West 280 322 9,300 -1,700 Descending Winnipeg Center
Fri 02:47:52 PM 52.0667 -106.1833 288° West 260 299 7,900 -1,450 Descending Winnipeg Center
Fri 02:48:52 PM 52.0833 -106.3000 283° West 240 276 6,400 -1,250 Descending Winnipeg Center
Fri 02:49:52 PM 52.1167 -106.3833 303° West 220 253 5,400 -950 Descending Winnipeg Center
Fri 02:50:52 PM 52.1167 -106.4667 270° West 200 230 4,500 -850 Descending Winnipeg Center
Fri 02:51:52 PM 52.1333 -106.5500 288° West 180 207 3,700 -800 Descending Winnipeg Center
Fri 02:52:52 PM 52.1500 -106.6167 292° West 160 184 2,900 -800 Descending Winnipeg Center
Fri 02:53:52 PM 52.1500 -106.6667 270° West 150 173 2,100 -800 Descending Winnipeg Center

Login

Don't have an account? Register now (free) for customized features, flight alerts, and more!